sensor_id;sensor_type;location;lat;lon;timestamp;P1;durP1;ratioP1;P2;durP2;ratioP2
53044;SDS011;38930;52.766;6.884;2022-10-17T00:00:48;7.82;;;5.03;;
53044;SDS011;38930;52.766;6.884;2022-10-17T00:03:14;5.82;;;4.47;;
53044;SDS011;38930;52.766;6.884;2022-10-17T00:05:44;8.50;;;4.47;;
53044;SDS011;38930;52.766;6.884;2022-10-17T00:08:12;8.55;;;4.70;;
53044;SDS011;38930;52.766;6.884;2022-10-17T00:10:39;7.22;;;4.40;;
53044;SDS011;38930;52.766;6.884;2022-10-17T00:13:06;6.63;;;3.90;;
53044;SDS011;38930;52.766;6.884;2022-10-17T00:17:58;8.07;;;4.25;;
53044;SDS011;38930;52.766;6.884;2022-10-17T00:20:23;8.25;;;4.68;;
53044;SDS011;38930;52.766;6.884;2022-10-17T00:22:49;8.63;;;4.82;;
53044;SDS011;38930;52.766;6.884;2022-10-17T00:25:15;8.50;;;4.18;;
53044;SDS011;38930;52.766;6.884;2022-10-17T00:27:41;7.23;;;4.57;;
53044;SDS011;38930;52.766;6.884;2022-10-17T00:30:09;7.35;;;4.10;;
53044;SDS011;38930;52.766;6.884;2022-10-17T00:32:37;8.20;;;3.92;;
53044;SDS011;38930;52.766;6.884;2022-10-17T00:35:02;5.93;;;4.13;;
53044;SDS011;38930;52.766;6.884;2022-10-17T00:37:29;7.43;;;4.00;;
53044;SDS011;38930;52.766;6.884;2022-10-17T00:39:56;5.50;;;4.10;;
53044;SDS011;38930;52.766;6.884;2022-10-17T00:42:21;5.47;;;3.87;;
53044;SDS011;38930;52.766;6.884;2022-10-17T00:47:15;6.50;;;4.43;;
53044;SDS011;38930;52.766;6.884;2022-10-17T00:49:43;6.85;;;3.60;;
53044;SDS011;38930;52.766;6.884;2022-10-17T00:52:17;5.47;;;4.20;;
53044;SDS011;38930;52.766;6.884;2022-10-17T00:54:50;6.13;;;3.97;;
53044;SDS011;38930;52.766;6.884;2022-10-17T00:57:22;8.40;;;4.13;;
53044;SDS011;38930;52.766;6.884;2022-10-17T00:59:50;7.22;;;4.60;;
53044;SDS011;38930;52.766;6.884;2022-10-17T01:02:20;7.75;;;4.72;;
53044;SDS011;38930;52.766;6.884;2022-10-17T01:04:47;7.60;;;5.00;;
53044;SDS011;38930;52.766;6.884;2022-10-17T01:07:15;9.18;;;5.57;;
53044;SDS011;38930;52.766;6.884;2022-10-17T01:09:41;10.55;;;5.82;;
53044;SDS011;38930;52.766;6.884;2022-10-17T01:20:44;7.93;;;5.25;;
53044;SDS011;38930;52.766;6.884;2022-10-17T01:26:15;6.70;;;5.07;;
53044;SDS011;38930;52.766;6.884;2022-10-17T01:31:16;8.40;;;5.78;;
53044;SDS011;38930;52.766;6.884;2022-10-17T01:36:23;10.07;;;4.90;;
53044;SDS011;38930;52.766;6.884;2022-10-17T01:38:59;7.38;;;5.05;;
53044;SDS011;38930;52.766;6.884;2022-10-17T01:44:07;6.00;;;5.40;;
53044;SDS011;38930;52.766;6.884;2022-10-17T01:47:02;10.82;;;5.80;;
53044;SDS011;38930;52.766;6.884;2022-10-17T01:49:31;10.73;;;6.45;;
53044;SDS011;38930;52.766;6.884;2022-10-17T01:52:01;6.85;;;5.75;;
53044;SDS011;38930;52.766;6.884;2022-10-17T01:54:34;9.30;;;6.88;;
53044;SDS011;38930;52.766;6.884;2022-10-17T01:57:05;11.60;;;6.82;;
53044;SDS011;38930;52.766;6.884;2022-10-17T01:59:35;9.43;;;6.97;;
53044;SDS011;38930;52.766;6.884;2022-10-17T02:02:05;9.23;;;6.30;;
53044;SDS011;38930;52.766;6.884;2022-10-17T02:04:31;8.27;;;7.38;;
53044;SDS011;38930;52.766;6.884;2022-10-17T02:07:05;10.25;;;6.78;;
53044;SDS011;38930;52.766;6.884;2022-10-17T02:09:33;9.95;;;6.97;;
53044;SDS011;38930;52.766;6.884;2022-10-17T02:17:51;9.75;;;7.70;;
53044;SDS011;38930;52.766;6.884;2022-10-17T02:23:10;11.65;;;7.95;;
53044;SDS011;38930;52.766;6.884;2022-10-17T02:28:08;9.77;;;8.15;;
53044;SDS011;38930;52.766;6.884;2022-10-17T02:30:43;10.07;;;7.38;;
53044;SDS011;38930;52.766;6.884;2022-10-17T02:33:26;12.90;;;7.40;;
53044;SDS011;38930;52.766;6.884;2022-10-17T02:35:57;10.27;;;7.68;;
53044;SDS011;38930;52.766;6.884;2022-10-17T02:38:28;11.98;;;7.35;;
53044;SDS011;38930;52.766;6.884;2022-10-17T02:40:55;8.45;;;7.13;;
53044;SDS011;38930;52.766;6.884;2022-10-17T02:43:21;7.30;;;6.57;;
53044;SDS011;38930;52.766;6.884;2022-10-17T02:45:48;11.10;;;7.65;;
53044;SDS011;38930;52.766;6.884;2022-10-17T02:48:21;8.65;;;7.40;;
53044;SDS011;38930;52.766;6.884;2022-10-17T02:56:30;11.00;;;7.60;;
53044;SDS011;38930;52.766;6.884;2022-10-17T02:59:01;9.02;;;8.05;;
53044;SDS011;38930;52.766;6.884;2022-10-17T03:01:29;9.45;;;8.07;;
53044;SDS011;38930;52.766;6.884;2022-10-17T03:04:13;9.60;;;8.20;;
53044;SDS011;38930;52.766;6.884;2022-10-17T03:06:39;9.35;;;7.45;;
53044;SDS011;38930;52.766;6.884;2022-10-17T03:09:06;8.77;;;7.53;;
53044;SDS011;38930;52.766;6.884;2022-10-17T03:11:32;11.52;;;7.72;;
53044;SDS011;38930;52.766;6.884;2022-10-17T03:13:58;8.45;;;7.43;;
53044;SDS011;38930;52.766;6.884;2022-10-17T03:16:23;14.90;;;9.00;;
53044;SDS011;38930;52.766;6.884;2022-10-17T03:18:49;9.30;;;8.30;;
53044;SDS011;38930;52.766;6.884;2022-10-17T03:21:15;9.93;;;7.97;;
53044;SDS011;38930;52.766;6.884;2022-10-17T03:23:40;10.13;;;8.77;;
53044;SDS011;38930;52.766;6.884;2022-10-17T03:26:06;14.77;;;8.48;;
53044;SDS011;38930;52.766;6.884;2022-10-17T03:28:32;11.75;;;8.07;;
53044;SDS011;38930;52.766;6.884;2022-10-17T03:30:58;9.47;;;8.50;;
53044;SDS011;38930;52.766;6.884;2022-10-17T03:33:24;11.85;;;9.10;;
53044;SDS011;38930;52.766;6.884;2022-10-17T03:35:49;10.52;;;8.70;;
53044;SDS011;38930;52.766;6.884;2022-10-17T03:38:15;10.73;;;9.10;;
53044;SDS011;38930;52.766;6.884;2022-10-17T03:40:40;10.50;;;8.90;;
53044;SDS011;38930;52.766;6.884;2022-10-17T03:43:06;11.55;;;9.52;;
53044;SDS011;38930;52.766;6.884;2022-10-17T03:45:32;10.02;;;8.45;;
53044;SDS011;38930;52.766;6.884;2022-10-17T03:47:58;11.43;;;9.80;;
53044;SDS011;38930;52.766;6.884;2022-10-17T03:50:24;11.02;;;9.93;;
53044;SDS011;38930;52.766;6.884;2022-10-17T03:52:49;14.35;;;9.55;;
53044;SDS011;38930;52.766;6.884;2022-10-17T03:55:15;14.23;;;9.80;;
53044;SDS011;38930;52.766;6.884;2022-10-17T03:57:41;12.27;;;10.18;;
53044;SDS011;38930;52.766;6.884;2022-10-17T04:00:07;12.70;;;10.90;;
53044;SDS011;38930;52.766;6.884;2022-10-17T04:02:33;12.20;;;11.00;;
53044;SDS011;38930;52.766;6.884;2022-10-17T04:04:59;12.00;;;8.80;;
53044;SDS011;38930;52.766;6.884;2022-10-17T04:07:25;15.00;;;9.77;;
53044;SDS011;38930;52.766;6.884;2022-10-17T04:09:51;12.13;;;10.85;;
53044;SDS011;38930;52.766;6.884;2022-10-17T04:12:16;12.98;;;11.13;;
53044;SDS011;38930;52.766;6.884;2022-10-17T04:14:42;18.08;;;11.20;;
53044;SDS011;38930;52.766;6.884;2022-10-17T04:17:08;13.43;;;10.98;;
53044;SDS011;38930;52.766;6.884;2022-10-17T04:19:34;12.88;;;11.50;;
53044;SDS011;38930;52.766;6.884;2022-10-17T04:22:00;15.25;;;13.02;;
53044;SDS011;38930;52.766;6.884;2022-10-17T04:26:53;15.73;;;13.00;;
53044;SDS011;38930;52.766;6.884;2022-10-17T04:29:19;15.50;;;13.00;;
53044;SDS011;38930;52.766;6.884;2022-10-17T04:31:45;13.90;;;12.43;;
53044;SDS011;38930;52.766;6.884;2022-10-17T04:34:10;16.27;;;12.05;;
53044;SDS011;38930;52.766;6.884;2022-10-17T04:36:38;16.95;;;13.00;;
53044;SDS011;38930;52.766;6.884;2022-10-17T04:39:04;20.27;;;14.37;;
53044;SDS011;38930;52.766;6.884;2022-10-17T04:41:30;15.57;;;13.93;;
53044;SDS011;38930;52.766;6.884;2022-10-17T04:43:56;18.77;;;15.07;;
53044;SDS011;38930;52.766;6.884;2022-10-17T04:46:21;17.13;;;14.97;;
53044;SDS011;38930;52.766;6.884;2022-10-17T04:48:47;17.80;;;15.40;;
53044;SDS011;38930;52.766;6.884;2022-10-17T04:51:14;17.67;;;15.10;;
53044;SDS011;38930;52.766;6.884;2022-10-17T04:53:42;21.10;;;16.23;;
53044;SDS011;38930;52.766;6.884;2022-10-17T04:58:35;17.42;;;14.50;;
53044;SDS011;38930;52.766;6.884;2022-10-17T05:01:08;20.70;;;15.65;;
53044;SDS011;38930;52.766;6.884;2022-10-17T05:03:35;19.70;;;17.33;;
53044;SDS011;38930;52.766;6.884;2022-10-17T05:06:08;21.85;;;17.92;;
53044;SDS011;38930;52.766;6.884;2022-10-17T05:08:35;20.63;;;17.08;;
53044;SDS011;38930;52.766;6.884;2022-10-17T05:11:01;22.70;;;20.03;;
53044;SDS011;38930;52.766;6.884;2022-10-17T05:13:27;23.95;;;19.25;;
53044;SDS011;38930;52.766;6.884;2022-10-17T05:15:56;20.60;;;17.10;;
53044;SDS011;38930;52.766;6.884;2022-10-17T05:18:23;20.85;;;16.30;;
53044;SDS011;38930;52.766;6.884;2022-10-17T05:20:49;20.50;;;18.03;;
53044;SDS011;38930;52.766;6.884;2022-10-17T05:23:15;24.67;;;16.90;;
53044;SDS011;38930;52.766;6.884;2022-10-17T05:25:40;19.88;;;15.98;;
53044;SDS011;38930;52.766;6.884;2022-10-17T05:28:06;23.67;;;18.95;;
53044;SDS011;38930;52.766;6.884;2022-10-17T05:30:33;21.38;;;17.38;;
53044;SDS011;38930;52.766;6.884;2022-10-17T05:32:59;19.70;;;16.08;;
53044;SDS011;38930;52.766;6.884;2022-10-17T05:35:24;20.70;;;16.77;;
53044;SDS011;38930;52.766;6.884;2022-10-17T05:37:50;22.85;;;18.52;;
53044;SDS011;38930;52.766;6.884;2022-10-17T05:40:16;22.02;;;18.08;;
53044;SDS011;38930;52.766;6.884;2022-10-17T05:42:45;22.70;;;18.02;;
53044;SDS011;38930;52.766;6.884;2022-10-17T05:45:12;20.02;;;17.00;;
53044;SDS011;38930;52.766;6.884;2022-10-17T05:47:38;20.35;;;18.23;;
53044;SDS011;38930;52.766;6.884;2022-10-17T05:50:04;19.70;;;17.42;;
53044;SDS011;38930;52.766;6.884;2022-10-17T05:52:30;20.00;;;17.13;;
53044;SDS011;38930;52.766;6.884;2022-10-17T05:54:56;18.27;;;16.13;;
53044;SDS011;38930;52.766;6.884;2022-10-17T05:57:23;22.13;;;17.27;;
53044;SDS011;38930;52.766;6.884;2022-10-17T05:59:49;20.60;;;17.67;;
53044;SDS011;38930;52.766;6.884;2022-10-17T06:02:15;22.57;;;16.93;;
53044;SDS011;38930;52.766;6.884;2022-10-17T06:04:40;19.13;;;17.20;;
53044;SDS011;38930;52.766;6.884;2022-10-17T06:07:09;17.17;;;15.07;;
53044;SDS011;38930;52.766;6.884;2022-10-17T06:09:36;21.23;;;16.80;;
53044;SDS011;38930;52.766;6.884;2022-10-17T06:12:02;19.10;;;15.93;;
53044;SDS011;38930;52.766;6.884;2022-10-17T06:14:27;19.83;;;16.60;;
53044;SDS011;38930;52.766;6.884;2022-10-17T06:16:53;18.77;;;16.77;;
53044;SDS011;38930;52.766;6.884;2022-10-17T06:19:18;18.73;;;16.67;;
53044;SDS011;38930;52.766;6.884;2022-10-17T06:21:44;20.43;;;15.97;;
53044;SDS011;38930;52.766;6.884;2022-10-17T06:24:10;20.10;;;16.40;;
53044;SDS011;38930;52.766;6.884;2022-10-17T06:26:35;18.37;;;15.30;;
53044;SDS011;38930;52.766;6.884;2022-10-17T06:29:01;18.77;;;14.90;;
53044;SDS011;38930;52.766;6.884;2022-10-17T06:31:26;21.00;;;15.65;;
53044;SDS011;38930;52.766;6.884;2022-10-17T06:33:52;20.77;;;17.10;;
53044;SDS011;38930;52.766;6.884;2022-10-17T06:36:17;17.05;;;15.25;;
53044;SDS011;38930;52.766;6.884;2022-10-17T06:38:43;17.27;;;15.07;;
53044;SDS011;38930;52.766;6.884;2022-10-17T06:41:10;16.93;;;14.90;;
53044;SDS011;38930;52.766;6.884;2022-10-17T06:43:38;16.30;;;14.40;;
53044;SDS011;38930;52.766;6.884;2022-10-17T06:48:30;19.40;;;13.60;;
53044;SDS011;38930;52.766;6.884;2022-10-17T06:51:00;17.92;;;14.75;;
53044;SDS011;38930;52.766;6.884;2022-10-17T06:53:30;18.13;;;15.20;;
53044;SDS011;38930;52.766;6.884;2022-10-17T06:55:57;16.90;;;13.82;;
53044;SDS011;38930;52.766;6.884;2022-10-17T06:58:27;17.65;;;13.63;;
53044;SDS011;38930;52.766;6.884;2022-10-17T07:00:58;17.90;;;14.02;;
53044;SDS011;38930;52.766;6.884;2022-10-17T07:03:29;16.13;;;14.07;;
53044;SDS011;38930;52.766;6.884;2022-10-17T07:05:55;15.93;;;13.97;;
53044;SDS011;38930;52.766;6.884;2022-10-17T07:08:21;15.57;;;13.40;;
53044;SDS011;38930;52.766;6.884;2022-10-17T07:10:47;15.05;;;13.38;;
53044;SDS011;38930;52.766;6.884;2022-10-17T07:13:13;19.38;;;13.32;;
53044;SDS011;38930;52.766;6.884;2022-10-17T07:15:39;15.43;;;12.75;;
53044;SDS011;38930;52.766;6.884;2022-10-17T07:18:05;15.80;;;12.85;;
53044;SDS011;38930;52.766;6.884;2022-10-17T07:20:31;15.05;;;12.85;;
53044;SDS011;38930;52.766;6.884;2022-10-17T07:22:56;17.27;;;12.43;;
53044;SDS011;38930;52.766;6.884;2022-10-17T07:25:22;14.60;;;12.20;;
53044;SDS011;38930;52.766;6.884;2022-10-17T07:27:49;13.00;;;11.70;;
53044;SDS011;38930;52.766;6.884;2022-10-17T07:30:14;13.35;;;11.95;;
53044;SDS011;38930;52.766;6.884;2022-10-17T07:32:41;15.15;;;11.40;;
53044;SDS011;38930;52.766;6.884;2022-10-17T07:35:07;14.80;;;12.35;;
53044;SDS011;38930;52.766;6.884;2022-10-17T07:37:33;12.43;;;10.77;;
53044;SDS011;38930;52.766;6.884;2022-10-17T07:39:59;14.82;;;10.05;;
53044;SDS011;38930;52.766;6.884;2022-10-17T07:42:24;14.98;;;10.27;;
53044;SDS011;38930;52.766;6.884;2022-10-17T07:47:17;11.40;;;8.32;;
53044;SDS011;38930;52.766;6.884;2022-10-17T07:49:42;8.83;;;7.80;;
53044;SDS011;38930;52.766;6.884;2022-10-17T07:52:12;9.05;;;7.68;;
53044;SDS011;38930;52.766;6.884;2022-10-17T07:54:39;14.90;;;7.15;;
53044;SDS011;38930;52.766;6.884;2022-10-17T07:57:05;8.33;;;7.00;;
53044;SDS011;38930;52.766;6.884;2022-10-17T07:59:31;12.53;;;6.87;;
53044;SDS011;38930;52.766;6.884;2022-10-17T08:01:57;8.75;;;6.90;;
53044;SDS011;38930;52.766;6.884;2022-10-17T08:04:24;8.23;;;6.40;;
53044;SDS011;38930;52.766;6.884;2022-10-17T08:06:50;8.63;;;6.60;;
53044;SDS011;38930;52.766;6.884;2022-10-17T08:09:16;7.80;;;6.30;;
53044;SDS011;38930;52.766;6.884;2022-10-17T08:11:41;6.93;;;5.93;;
53044;SDS011;38930;52.766;6.884;2022-10-17T08:14:11;10.45;;;6.72;;
53044;SDS011;38930;52.766;6.884;2022-10-17T08:16:37;12.25;;;6.68;;
53044;SDS011;38930;52.766;6.884;2022-10-17T08:21:30;9.60;;;6.60;;
53044;SDS011;38930;52.766;6.884;2022-10-17T08:23:55;9.50;;;6.50;;
53044;SDS011;38930;52.766;6.884;2022-10-17T08:26:21;10.13;;;6.80;;
53044;SDS011;38930;52.766;6.884;2022-10-17T08:28:47;8.57;;;6.60;;
53044;SDS011;38930;52.766;6.884;2022-10-17T08:31:14;9.02;;;6.40;;
53044;SDS011;38930;52.766;6.884;2022-10-17T08:33:44;10.50;;;6.32;;
53044;SDS011;38930;52.766;6.884;2022-10-17T08:36:12;13.52;;;6.85;;
53044;SDS011;38930;52.766;6.884;2022-10-17T08:38:39;9.85;;;6.10;;
53044;SDS011;38930;52.766;6.884;2022-10-17T08:41:53;12.05;;;6.40;;
53044;SDS011;38930;52.766;6.884;2022-10-17T08:46:49;8.63;;;6.35;;
53044;SDS011;38930;52.766;6.884;2022-10-17T08:52:06;8.77;;;5.93;;
53044;SDS011;38930;52.766;6.884;2022-10-17T08:54:41;10.65;;;6.20;;
53044;SDS011;38930;52.766;6.884;2022-10-17T08:57:13;9.60;;;6.32;;
53044;SDS011;38930;52.766;6.884;2022-10-17T08:59:40;11.10;;;6.07;;
53044;SDS011;38930;52.766;6.884;2022-10-17T09:10:37;10.02;;;6.50;;
53044;SDS011;38930;52.766;6.884;2022-10-17T09:13:25;10.52;;;6.30;;
53044;SDS011;38930;52.766;6.884;2022-10-17T09:18:40;8.35;;;6.00;;
53044;SDS011;38930;52.766;6.884;2022-10-17T09:24:12;9.38;;;6.22;;
53044;SDS011;38930;52.766;6.884;2022-10-17T09:26:43;9.25;;;6.45;;
53044;SDS011;38930;52.766;6.884;2022-10-17T09:29:14;11.02;;;6.75;;
53044;SDS011;38930;52.766;6.884;2022-10-17T09:31:59;9.45;;;6.35;;
53044;SDS011;38930;52.766;6.884;2022-10-17T09:34:29;10.07;;;6.50;;
53044;SDS011;38930;52.766;6.884;2022-10-17T09:36:59;10.07;;;6.40;;
53044;SDS011;38930;52.766;6.884;2022-10-17T09:39:26;9.00;;;6.20;;
53044;SDS011;38930;52.766;6.884;2022-10-17T09:41:57;12.27;;;6.32;;
53044;SDS011;38930;52.766;6.884;2022-10-17T09:44:28;8.65;;;6.03;;
53044;SDS011;38930;52.766;6.884;2022-10-17T09:49:44;11.75;;;6.47;;
53044;SDS011;38930;52.766;6.884;2022-10-17T09:52:19;10.13;;;6.65;;
53044;SDS011;38930;52.766;6.884;2022-10-17T09:54:58;10.70;;;6.43;;
53044;SDS011;38930;52.766;6.884;2022-10-17T09:57:28;7.30;;;5.72;;
53044;SDS011;38930;52.766;6.884;2022-10-17T10:00:28;11.63;;;6.00;;
53044;SDS011;38930;52.766;6.884;2022-10-17T10:03:20;6.75;;;5.78;;
53044;SDS011;38930;52.766;6.884;2022-10-17T10:08:27;13.50;;;6.80;;
53044;SDS011;38930;52.766;6.884;2022-10-17T10:10:59;9.65;;;6.70;;
53044;SDS011;38930;52.766;6.884;2022-10-17T10:13:29;9.52;;;6.95;;
53044;SDS011;38930;52.766;6.884;2022-10-17T10:16:11;9.13;;;7.25;;
53044;SDS011;38930;52.766;6.884;2022-10-17T10:18:39;11.23;;;7.50;;
53044;SDS011;38930;52.766;6.884;2022-10-17T10:23:36;10.57;;;8.00;;
53044;SDS011;38930;52.766;6.884;2022-10-17T10:26:11;10.98;;;7.72;;
53044;SDS011;38930;52.766;6.884;2022-10-17T10:28:49;10.35;;;7.85;;
53044;SDS011;38930;52.766;6.884;2022-10-17T10:31:24;10.30;;;8.52;;
53044;SDS011;38930;52.766;6.884;2022-10-17T10:33:56;12.18;;;8.15;;
53044;SDS011;38930;52.766;6.884;2022-10-17T10:36:25;9.02;;;7.57;;
53044;SDS011;38930;52.766;6.884;2022-10-17T10:39:07;9.10;;;8.02;;
53044;SDS011;38930;52.766;6.884;2022-10-17T10:41:46;12.55;;;9.00;;
53044;SDS011;38930;52.766;6.884;2022-10-17T10:44:13;9.93;;;8.35;;
53044;SDS011;38930;52.766;6.884;2022-10-17T10:46:39;14.15;;;9.93;;
53044;SDS011;38930;52.766;6.884;2022-10-17T10:49:07;13.27;;;9.63;;
53044;SDS011;38930;52.766;6.884;2022-10-17T10:51:55;13.68;;;9.20;;
53044;SDS011;38930;52.766;6.884;2022-10-17T10:54:25;11.02;;;8.88;;
53044;SDS011;38930;52.766;6.884;2022-10-17T10:56:57;13.80;;;11.02;;
53044;SDS011;38930;52.766;6.884;2022-10-17T11:04:49;17.27;;;12.45;;
53044;SDS011;38930;52.766;6.884;2022-10-17T11:07:34;13.43;;;11.40;;
53044;SDS011;38930;52.766;6.884;2022-10-17T11:17:59;13.77;;;11.57;;
53044;SDS011;38930;52.766;6.884;2022-10-17T11:26:15;14.77;;;12.02;;
53044;SDS011;38930;52.766;6.884;2022-10-17T11:28:53;12.15;;;10.77;;
53044;SDS011;38930;52.766;6.884;2022-10-17T11:31:21;14.88;;;11.05;;
53044;SDS011;38930;52.766;6.884;2022-10-17T11:33:51;13.18;;;10.93;;
53044;SDS011;38930;52.766;6.884;2022-10-17T11:36:25;11.00;;;9.88;;
53044;SDS011;38930;52.766;6.884;2022-10-17T11:38:55;13.73;;;10.45;;
53044;SDS011;38930;52.766;6.884;2022-10-17T11:41:35;13.48;;;11.13;;
53044;SDS011;38930;52.766;6.884;2022-10-17T11:44:28;12.88;;;10.82;;
53044;SDS011;38930;52.766;6.884;2022-10-17T11:47:02;12.30;;;10.95;;
53044;SDS011;38930;52.766;6.884;2022-10-17T11:49:31;12.13;;;10.27;;
53044;SDS011;38930;52.766;6.884;2022-10-17T11:52:08;13.88;;;10.50;;
53044;SDS011;38930;52.766;6.884;2022-10-17T11:54:41;11.25;;;9.95;;
53044;SDS011;38930;52.766;6.884;2022-10-17T12:03:24;9.00;;;7.97;;
53044;SDS011;38930;52.766;6.884;2022-10-17T12:06:47;9.40;;;8.50;;
53044;SDS011;38930;52.766;6.884;2022-10-17T12:09:21;8.90;;;7.90;;
53044;SDS011;38930;52.766;6.884;2022-10-17T12:11:51;10.52;;;8.45;;
53044;SDS011;38930;52.766;6.884;2022-10-17T12:17:20;10.00;;;8.52;;
53044;SDS011;38930;52.766;6.884;2022-10-17T12:19:46;7.82;;;7.03;;
53044;SDS011;38930;52.766;6.884;2022-10-17T12:22:22;10.00;;;7.50;;
53044;SDS011;38930;52.766;6.884;2022-10-17T12:29:58;7.97;;;7.03;;
53044;SDS011;38930;52.766;6.884;2022-10-17T12:32:29;9.80;;;7.22;;
53044;SDS011;38930;52.766;6.884;2022-10-17T12:34:55;7.22;;;6.53;;
53044;SDS011;38930;52.766;6.884;2022-10-17T12:37:42;7.70;;;7.00;;
53044;SDS011;38930;52.766;6.884;2022-10-17T12:51:08;7.35;;;6.45;;
53044;SDS011;38930;52.766;6.884;2022-10-17T12:53:40;6.82;;;6.18;;
53044;SDS011;38930;52.766;6.884;2022-10-17T12:56:30;6.93;;;5.75;;
53044;SDS011;38930;52.766;6.884;2022-10-17T12:59:16;6.80;;;6.10;;
53044;SDS011;38930;52.766;6.884;2022-10-17T13:01:42;6.55;;;5.38;;
53044;SDS011;38930;52.766;6.884;2022-10-17T13:04:11;7.78;;;5.97;;
53044;SDS011;38930;52.766;6.884;2022-10-17T13:06:45;6.25;;;5.65;;
53044;SDS011;38930;52.766;6.884;2022-10-17T13:11:49;6.15;;;5.60;;
53044;SDS011;38930;52.766;6.884;2022-10-17T13:14:17;6.53;;;5.35;;
53044;SDS011;38930;52.766;6.884;2022-10-17T13:16:52;7.07;;;5.63;;
53044;SDS011;38930;52.766;6.884;2022-10-17T13:19:28;6.32;;;5.47;;
53044;SDS011;38930;52.766;6.884;2022-10-17T13:22:00;6.72;;;5.57;;
53044;SDS011;38930;52.766;6.884;2022-10-17T13:24:37;6.68;;;5.97;;
53044;SDS011;38930;52.766;6.884;2022-10-17T13:27:04;6.50;;;5.85;;
53044;SDS011;38930;52.766;6.884;2022-10-17T13:29:45;7.85;;;6.18;;
53044;SDS011;38930;52.766;6.884;2022-10-17T13:32:10;7.90;;;6.17;;
53044;SDS011;38930;52.766;6.884;2022-10-17T13:34:36;7.73;;;6.30;;
53044;SDS011;38930;52.766;6.884;2022-10-17T13:37:03;10.70;;;6.73;;
53044;SDS011;38930;52.766;6.884;2022-10-17T13:39:37;6.82;;;6.07;;
53044;SDS011;38930;52.766;6.884;2022-10-17T13:42:05;7.63;;;6.47;;
53044;SDS011;38930;52.766;6.884;2022-10-17T13:44:46;8.25;;;6.28;;
53044;SDS011;38930;52.766;6.884;2022-10-17T13:47:45;6.23;;;5.63;;
53044;SDS011;38930;52.766;6.884;2022-10-17T13:50:05;6.85;;;6.15;;
53044;SDS011;38930;52.766;6.884;2022-10-17T13:52:31;8.48;;;6.18;;
53044;SDS011;38930;52.766;6.884;2022-10-17T13:55:08;9.40;;;6.27;;
53044;SDS011;38930;52.766;6.884;2022-10-17T13:57:39;10.07;;;6.20;;
53044;SDS011;38930;52.766;6.884;2022-10-17T14:00:17;7.17;;;6.40;;
53044;SDS011;38930;52.766;6.884;2022-10-17T14:02:45;7.05;;;6.35;;
53044;SDS011;38930;52.766;6.884;2022-10-17T14:07:40;10.73;;;6.53;;
53044;SDS011;38930;52.766;6.884;2022-10-17T14:10:20;8.85;;;6.35;;
53044;SDS011;38930;52.766;6.884;2022-10-17T14:12:51;8.90;;;6.68;;
53044;SDS011;38930;52.766;6.884;2022-10-17T14:17:45;9.25;;;6.53;;
53044;SDS011;38930;52.766;6.884;2022-10-17T14:20:22;9.15;;;7.10;;
53044;SDS011;38930;52.766;6.884;2022-10-17T14:22:48;7.82;;;6.68;;
53044;SDS011;38930;52.766;6.884;2022-10-17T14:25:27;11.60;;;7.13;;
53044;SDS011;38930;52.766;6.884;2022-10-17T14:28:11;11.18;;;6.68;;
53044;SDS011;38930;52.766;6.884;2022-10-17T14:30:42;6.30;;;5.30;;
53044;SDS011;38930;52.766;6.884;2022-10-17T14:33:14;8.02;;;4.60;;
53044;SDS011;38930;52.766;6.884;2022-10-17T14:36:06;4.85;;;3.75;;
53044;SDS011;38930;52.766;6.884;2022-10-17T14:38:32;4.13;;;3.47;;
53044;SDS011;38930;52.766;6.884;2022-10-17T14:41:02;6.45;;;3.05;;
53044;SDS011;38930;52.766;6.884;2022-10-17T14:43:34;5.25;;;3.40;;
53044;SDS011;38930;52.766;6.884;2022-10-17T14:46:00;5.93;;;3.07;;
53044;SDS011;38930;52.766;6.884;2022-10-17T14:48:27;5.10;;;2.95;;
53044;SDS011;38930;52.766;6.884;2022-10-17T14:51:06;5.35;;;2.75;;
53044;SDS011;38930;52.766;6.884;2022-10-17T14:53:40;4.22;;;2.60;;
53044;SDS011;38930;52.766;6.884;2022-10-17T14:56:24;3.20;;;2.28;;
53044;SDS011;38930;52.766;6.884;2022-10-17T14:59:00;3.72;;;2.22;;
53044;SDS011;38930;52.766;6.884;2022-10-17T15:01:27;2.75;;;1.83;;
53044;SDS011;38930;52.766;6.884;2022-10-17T15:03:53;3.43;;;1.70;;
53044;SDS011;38930;52.766;6.884;2022-10-17T15:06:19;2.80;;;1.60;;
53044;SDS011;38930;52.766;6.884;2022-10-17T15:08:47;4.05;;;2.35;;
53044;SDS011;38930;52.766;6.884;2022-10-17T15:11:13;3.57;;;1.77;;
53044;SDS011;38930;52.766;6.884;2022-10-17T15:13:38;3.87;;;2.00;;
53044;SDS011;38930;52.766;6.884;2022-10-17T15:16:14;4.13;;;2.40;;
53044;SDS011;38930;52.766;6.884;2022-10-17T15:18:43;2.80;;;1.55;;
53044;SDS011;38930;52.766;6.884;2022-10-17T15:21:12;7.13;;;3.10;;
53044;SDS011;38930;52.766;6.884;2022-10-17T15:23:39;4.15;;;2.22;;
53044;SDS011;38930;52.766;6.884;2022-10-17T15:28:46;2.85;;;1.90;;
53044;SDS011;38930;52.766;6.884;2022-10-17T15:31:14;2.38;;;1.65;;
53044;SDS011;38930;52.766;6.884;2022-10-17T15:33:42;3.45;;;1.77;;
53044;SDS011;38930;52.766;6.884;2022-10-17T15:36:22;3.05;;;1.75;;
53044;SDS011;38930;52.766;6.884;2022-10-17T15:38:56;3.45;;;1.88;;
53044;SDS011;38930;52.766;6.884;2022-10-17T15:41:24;3.45;;;1.50;;
53044;SDS011;38930;52.766;6.884;2022-10-17T15:43:51;2.60;;;1.80;;
53044;SDS011;38930;52.766;6.884;2022-10-17T15:46:18;3.23;;;1.60;;
53044;SDS011;38930;52.766;6.884;2022-10-17T15:48:46;3.53;;;1.50;;
53044;SDS011;38930;52.766;6.884;2022-10-17T15:51:12;3.40;;;1.70;;
53044;SDS011;38930;52.766;6.884;2022-10-17T15:53:38;2.67;;;1.57;;
53044;SDS011;38930;52.766;6.884;2022-10-17T15:56:04;4.53;;;1.67;;
53044;SDS011;38930;52.766;6.884;2022-10-17T16:01:01;4.97;;;3.08;;
53044;SDS011;38930;52.766;6.884;2022-10-17T16:03:28;4.15;;;2.50;;
53044;SDS011;38930;52.766;6.884;2022-10-17T16:05:54;3.37;;;2.03;;
53044;SDS011;38930;52.766;6.884;2022-10-17T16:08:20;3.87;;;2.27;;
53044;SDS011;38930;52.766;6.884;2022-10-17T16:10:46;3.03;;;2.10;;
53044;SDS011;38930;52.766;6.884;2022-10-17T16:13:15;4.85;;;2.25;;
53044;SDS011;38930;52.766;6.884;2022-10-17T16:15:42;3.90;;;2.00;;
53044;SDS011;38930;52.766;6.884;2022-10-17T16:18:10;6.50;;;2.33;;
53044;SDS011;38930;52.766;6.884;2022-10-17T16:20:35;3.40;;;2.03;;
53044;SDS011;38930;52.766;6.884;2022-10-17T16:23:02;3.28;;;1.80;;
53044;SDS011;38930;52.766;6.884;2022-10-17T16:25:29;2.83;;;2.25;;
53044;SDS011;38930;52.766;6.884;2022-10-17T16:27:57;3.30;;;2.30;;
53044;SDS011;38930;52.766;6.884;2022-10-17T16:30:25;5.10;;;2.50;;
53044;SDS011;38930;52.766;6.884;2022-10-17T16:32:52;3.22;;;2.38;;
53044;SDS011;38930;52.766;6.884;2022-10-17T16:35:28;5.60;;;3.13;;
53044;SDS011;38930;52.766;6.884;2022-10-17T16:37:54;5.43;;;3.53;;
53044;SDS011;38930;52.766;6.884;2022-10-17T16:40:22;4.15;;;3.00;;
53044;SDS011;38930;52.766;6.884;2022-10-17T16:42:47;5.93;;;3.63;;
53044;SDS011;38930;52.766;6.884;2022-10-17T16:45:17;4.13;;;3.73;;
53044;SDS011;38930;52.766;6.884;2022-10-17T16:47:47;5.78;;;3.97;;
53044;SDS011;38930;52.766;6.884;2022-10-17T16:50:13;7.00;;;4.22;;
53044;SDS011;38930;52.766;6.884;2022-10-17T16:52:38;4.67;;;3.70;;
53044;SDS011;38930;52.766;6.884;2022-10-17T16:55:04;4.50;;;3.83;;
53044;SDS011;38930;52.766;6.884;2022-10-17T16:57:31;6.72;;;4.28;;
53044;SDS011;38930;52.766;6.884;2022-10-17T16:59:56;10.30;;;5.83;;
53044;SDS011;38930;52.766;6.884;2022-10-17T17:02:22;6.67;;;5.10;;
53044;SDS011;38930;52.766;6.884;2022-10-17T17:04:47;8.40;;;5.22;;
53044;SDS011;38930;52.766;6.884;2022-10-17T17:07:13;5.97;;;5.37;;
53044;SDS011;38930;52.766;6.884;2022-10-17T17:09:39;7.00;;;5.68;;